Terminal Aerodrome Forecast
Issued by NWS

Home | Current Version | Previous Version | Text Only | Print | Product List | Glossary On
Versions: 1 2 3 4 5 6 7 8 9 10 11 12 13 14 15 16 17 18 19 20 21 22 23 24 25 26
527
FTAK31 PANC 131145
TAFAGK
TAF
PAGK 131145Z 1312/1412 04006KT P6SM SCT120
     FM132000 15007KT 5SM -SN BR SCT025 BKN040
     FM140200 17007KT 6SM -SHRASN SCT030 OVC060=

USA.gov is the U.S. government's official web portal to all federal, state and local government web resources and services.